sensor_id;sensor_type;location;lat;lon;timestamp;P1;durP1;ratioP1;P2;durP2;ratioP2
9138;SDS011;4604;48.616;9.548;2022-12-18T00:02:06;37.87;;;18.40;;
9138;SDS011;4604;48.616;9.548;2022-12-18T00:07:04;36.77;;;16.47;;
9138;SDS011;4604;48.616;9.548;2022-12-18T00:09:31;45.50;;;15.30;;
9138;SDS011;4604;48.616;9.548;2022-12-18T00:11:58;31.30;;;16.13;;
9138;SDS011;4604;48.616;9.548;2022-12-18T00:14:24;35.57;;;16.30;;
9138;SDS011;4604;48.616;9.548;2022-12-18T00:16:51;28.50;;;12.57;;
9138;SDS011;4604;48.616;9.548;2022-12-18T00:19:21;33.60;;;13.83;;
9138;SDS011;4604;48.616;9.548;2022-12-18T00:21:47;29.47;;;13.90;;
9138;SDS011;4604;48.616;9.548;2022-12-18T00:24:14;33.87;;;14.63;;
9138;SDS011;4604;48.616;9.548;2022-12-18T00:26:41;31.23;;;16.10;;
9138;SDS011;4604;48.616;9.548;2022-12-18T00:29:11;32.23;;;14.73;;
9138;SDS011;4604;48.616;9.548;2022-12-18T00:31:39;36.93;;;13.87;;
9138;SDS011;4604;48.616;9.548;2022-12-18T00:34:08;40.97;;;13.90;;
9138;SDS011;4604;48.616;9.548;2022-12-18T00:36:38;30.50;;;12.47;;
9138;SDS011;4604;48.616;9.548;2022-12-18T00:39:06;26.63;;;13.97;;
9138;SDS011;4604;48.616;9.548;2022-12-18T00:41:33;23.93;;;12.23;;
9138;SDS011;4604;48.616;9.548;2022-12-18T00:44:18;26.60;;;13.13;;
9138;SDS011;4604;48.616;9.548;2022-12-18T00:46:45;26.53;;;12.77;;
9138;SDS011;4604;48.616;9.548;2022-12-18T00:49:13;27.87;;;13.87;;
9138;SDS011;4604;48.616;9.548;2022-12-18T00:51:42;32.63;;;13.17;;
9138;SDS011;4604;48.616;9.548;2022-12-18T00:54:09;22.80;;;12.50;;
9138;SDS011;4604;48.616;9.548;2022-12-18T00:56:36;30.87;;;12.17;;
9138;SDS011;4604;48.616;9.548;2022-12-18T00:59:04;28.80;;;13.60;;
9138;SDS011;4604;48.616;9.548;2022-12-18T01:01:31;37.40;;;11.80;;
9138;SDS011;4604;48.616;9.548;2022-12-18T01:03:59;31.53;;;13.00;;
9138;SDS011;4604;48.616;9.548;2022-12-18T01:06:26;30.23;;;13.30;;
9138;SDS011;4604;48.616;9.548;2022-12-18T01:08:54;24.67;;;11.20;;
9138;SDS011;4604;48.616;9.548;2022-12-18T01:11:21;29.07;;;12.97;;
9138;SDS011;4604;48.616;9.548;2022-12-18T01:13:48;20.43;;;11.70;;
9138;SDS011;4604;48.616;9.548;2022-12-18T01:16:15;24.30;;;11.60;;
9138;SDS011;4604;48.616;9.548;2022-12-18T01:18:43;26.30;;;11.20;;
9138;SDS011;4604;48.616;9.548;2022-12-18T01:21:12;21.20;;;10.77;;
9138;SDS011;4604;48.616;9.548;2022-12-18T01:23:41;20.53;;;10.30;;
9138;SDS011;4604;48.616;9.548;2022-12-18T01:26:10;18.80;;;10.77;;
9138;SDS011;4604;48.616;9.548;2022-12-18T01:28:40;31.73;;;11.47;;
9138;SDS011;4604;48.616;9.548;2022-12-18T01:31:12;22.37;;;11.20;;
9138;SDS011;4604;48.616;9.548;2022-12-18T01:33:41;21.07;;;11.17;;
9138;SDS011;4604;48.616;9.548;2022-12-18T01:36:11;25.97;;;11.27;;
9138;SDS011;4604;48.616;9.548;2022-12-18T01:38:41;20.87;;;10.57;;
9138;SDS011;4604;48.616;9.548;2022-12-18T01:41:09;24.50;;;12.63;;
9138;SDS011;4604;48.616;9.548;2022-12-18T01:43:46;17.50;;;9.73;;
9138;SDS011;4604;48.616;9.548;2022-12-18T01:46:16;22.43;;;10.80;;
9138;SDS011;4604;48.616;9.548;2022-12-18T01:48:44;22.80;;;9.87;;
9138;SDS011;4604;48.616;9.548;2022-12-18T01:51:13;23.40;;;10.60;;
9138;SDS011;4604;48.616;9.548;2022-12-18T01:53:41;27.50;;;11.53;;
9138;SDS011;4604;48.616;9.548;2022-12-18T01:56:13;27.70;;;11.93;;
9138;SDS011;4604;48.616;9.548;2022-12-18T01:58:45;21.00;;;10.20;;
9138;SDS011;4604;48.616;9.548;2022-12-18T02:01:20;24.70;;;10.67;;
9138;SDS011;4604;48.616;9.548;2022-12-18T02:03:47;21.13;;;9.63;;
9138;SDS011;4604;48.616;9.548;2022-12-18T02:06:15;19.53;;;8.40;;
9138;SDS011;4604;48.616;9.548;2022-12-18T02:08:51;19.97;;;10.77;;
9138;SDS011;4604;48.616;9.548;2022-12-18T02:11:32;20.53;;;10.40;;
9138;SDS011;4604;48.616;9.548;2022-12-18T02:14:19;17.07;;;7.87;;
9138;SDS011;4604;48.616;9.548;2022-12-18T02:16:56;19.27;;;10.70;;
9138;SDS011;4604;48.616;9.548;2022-12-18T02:19:44;18.53;;;9.33;;
9138;SDS011;4604;48.616;9.548;2022-12-18T02:22:24;28.13;;;10.23;;
9138;SDS011;4604;48.616;9.548;2022-12-18T02:25:01;20.70;;;8.80;;
9138;SDS011;4604;48.616;9.548;2022-12-18T02:27:41;21.80;;;10.40;;
9138;SDS011;4604;48.616;9.548;2022-12-18T02:30:09;16.63;;;8.27;;
9138;SDS011;4604;48.616;9.548;2022-12-18T02:32:45;25.87;;;10.53;;
9138;SDS011;4604;48.616;9.548;2022-12-18T02:35:17;16.37;;;9.07;;
9138;SDS011;4604;48.616;9.548;2022-12-18T02:37:48;30.63;;;12.13;;
9138;SDS011;4604;48.616;9.548;2022-12-18T02:40:15;22.53;;;11.70;;
9138;SDS011;4604;48.616;9.548;2022-12-18T02:42:45;22.77;;;11.57;;
9138;SDS011;4604;48.616;9.548;2022-12-18T02:45:12;19.20;;;10.17;;
9138;SDS011;4604;48.616;9.548;2022-12-18T02:47:42;35.00;;;12.83;;
9138;SDS011;4604;48.616;9.548;2022-12-18T02:50:13;25.53;;;11.40;;
9138;SDS011;4604;48.616;9.548;2022-12-18T02:52:52;26.17;;;11.57;;
9138;SDS011;4604;48.616;9.548;2022-12-18T02:55:28;19.30;;;9.87;;
9138;SDS011;4604;48.616;9.548;2022-12-18T02:58:11;29.00;;;10.37;;
9138;SDS011;4604;48.616;9.548;2022-12-18T03:00:43;19.10;;;9.87;;
9138;SDS011;4604;48.616;9.548;2022-12-18T03:03:18;24.50;;;11.70;;
9138;SDS011;4604;48.616;9.548;2022-12-18T03:05:52;22.73;;;11.73;;
9138;SDS011;4604;48.616;9.548;2022-12-18T03:08:24;23.30;;;11.10;;
9138;SDS011;4604;48.616;9.548;2022-12-18T03:10:55;24.80;;;12.07;;
9138;SDS011;4604;48.616;9.548;2022-12-18T03:13:30;26.67;;;11.23;;
9138;SDS011;4604;48.616;9.548;2022-12-18T03:15:59;32.53;;;14.00;;
9138;SDS011;4604;48.616;9.548;2022-12-18T03:18:29;22.97;;;11.70;;
9138;SDS011;4604;48.616;9.548;2022-12-18T03:21:00;25.30;;;11.80;;
9138;SDS011;4604;48.616;9.548;2022-12-18T03:23:32;25.87;;;11.67;;
9138;SDS011;4604;48.616;9.548;2022-12-18T03:26:04;20.60;;;10.70;;
9138;SDS011;4604;48.616;9.548;2022-12-18T03:28:36;21.07;;;11.10;;
9138;SDS011;4604;48.616;9.548;2022-12-18T03:31:08;22.77;;;12.20;;
9138;SDS011;4604;48.616;9.548;2022-12-18T03:33:38;28.37;;;11.03;;
9138;SDS011;4604;48.616;9.548;2022-12-18T03:36:08;18.90;;;9.60;;
9138;SDS011;4604;48.616;9.548;2022-12-18T03:38:35;21.03;;;10.10;;
9138;SDS011;4604;48.616;9.548;2022-12-18T03:41:03;15.70;;;8.57;;
9138;SDS011;4604;48.616;9.548;2022-12-18T03:43:42;19.97;;;9.60;;
9138;SDS011;4604;48.616;9.548;2022-12-18T03:46:15;19.60;;;10.30;;
9138;SDS011;4604;48.616;9.548;2022-12-18T03:48:52;19.90;;;9.10;;
9138;SDS011;4604;48.616;9.548;2022-12-18T03:51:26;20.87;;;9.53;;
9138;SDS011;4604;48.616;9.548;2022-12-18T03:53:59;18.43;;;8.77;;
9138;SDS011;4604;48.616;9.548;2022-12-18T03:56:29;21.07;;;8.17;;
9138;SDS011;4604;48.616;9.548;2022-12-18T03:59:02;23.57;;;10.53;;
9138;SDS011;4604;48.616;9.548;2022-12-18T04:01:31;22.13;;;11.03;;
9138;SDS011;4604;48.616;9.548;2022-12-18T04:04:01;20.83;;;11.03;;
9138;SDS011;4604;48.616;9.548;2022-12-18T04:06:29;18.70;;;10.17;;
9138;SDS011;4604;48.616;9.548;2022-12-18T04:08:57;20.17;;;9.33;;
9138;SDS011;4604;48.616;9.548;2022-12-18T04:11:24;21.97;;;11.30;;
9138;SDS011;4604;48.616;9.548;2022-12-18T04:13:52;19.70;;;9.57;;
9138;SDS011;4604;48.616;9.548;2022-12-18T04:16:23;20.20;;;8.27;;
9138;SDS011;4604;48.616;9.548;2022-12-18T04:18:50;16.03;;;8.80;;
9138;SDS011;4604;48.616;9.548;2022-12-18T04:21:17;22.67;;;9.63;;
9138;SDS011;4604;48.616;9.548;2022-12-18T04:23:44;16.93;;;8.73;;
9138;SDS011;4604;48.616;9.548;2022-12-18T04:26:11;24.03;;;9.50;;
9138;SDS011;4604;48.616;9.548;2022-12-18T04:28:37;17.60;;;8.27;;
9138;SDS011;4604;48.616;9.548;2022-12-18T04:31:04;15.43;;;7.90;;
9138;SDS011;4604;48.616;9.548;2022-12-18T04:33:33;11.30;;;7.90;;
9138;SDS011;4604;48.616;9.548;2022-12-18T04:35:59;20.03;;;10.17;;
9138;SDS011;4604;48.616;9.548;2022-12-18T04:38:26;16.13;;;8.57;;
9138;SDS011;4604;48.616;9.548;2022-12-18T04:40:53;26.27;;;9.73;;
9138;SDS011;4604;48.616;9.548;2022-12-18T04:43:20;19.33;;;10.00;;
9138;SDS011;4604;48.616;9.548;2022-12-18T04:45:46;21.83;;;9.20;;
9138;SDS011;4604;48.616;9.548;2022-12-18T04:48:13;22.57;;;9.73;;
9138;SDS011;4604;48.616;9.548;2022-12-18T04:50:42;19.10;;;9.77;;
9138;SDS011;4604;48.616;9.548;2022-12-18T04:53:08;17.90;;;9.00;;
9138;SDS011;4604;48.616;9.548;2022-12-18T04:55:35;25.67;;;10.87;;
9138;SDS011;4604;48.616;9.548;2022-12-18T04:58:02;24.47;;;9.47;;
9138;SDS011;4604;48.616;9.548;2022-12-18T05:00:29;20.90;;;9.53;;
9138;SDS011;4604;48.616;9.548;2022-12-18T05:02:55;21.40;;;10.47;;
9138;SDS011;4604;48.616;9.548;2022-12-18T05:05:22;24.47;;;10.90;;
9138;SDS011;4604;48.616;9.548;2022-12-18T05:07:50;22.77;;;10.53;;
9138;SDS011;4604;48.616;9.548;2022-12-18T05:10:17;26.80;;;11.17;;
9138;SDS011;4604;48.616;9.548;2022-12-18T05:12:44;25.33;;;10.67;;
9138;SDS011;4604;48.616;9.548;2022-12-18T05:15:27;20.63;;;10.10;;
9138;SDS011;4604;48.616;9.548;2022-12-18T05:17:54;32.67;;;11.60;;
9138;SDS011;4604;48.616;9.548;2022-12-18T05:20:22;21.13;;;8.97;;
9138;SDS011;4604;48.616;9.548;2022-12-18T05:22:51;24.23;;;10.87;;
9138;SDS011;4604;48.616;9.548;2022-12-18T05:25:17;20.23;;;10.20;;
9138;SDS011;4604;48.616;9.548;2022-12-18T05:27:45;19.90;;;10.70;;
9138;SDS011;4604;48.616;9.548;2022-12-18T05:30:13;20.57;;;9.63;;
9138;SDS011;4604;48.616;9.548;2022-12-18T05:32:40;25.07;;;10.03;;
9138;SDS011;4604;48.616;9.548;2022-12-18T05:35:08;22.80;;;11.17;;
9138;SDS011;4604;48.616;9.548;2022-12-18T05:37:36;22.47;;;10.63;;
9138;SDS011;4604;48.616;9.548;2022-12-18T05:40:05;18.07;;;8.70;;
9138;SDS011;4604;48.616;9.548;2022-12-18T05:42:32;23.63;;;10.33;;
9138;SDS011;4604;48.616;9.548;2022-12-18T05:44:59;21.10;;;10.23;;
9138;SDS011;4604;48.616;9.548;2022-12-18T05:47:26;20.80;;;10.10;;
9138;SDS011;4604;48.616;9.548;2022-12-18T05:49:53;24.83;;;10.43;;
9138;SDS011;4604;48.616;9.548;2022-12-18T05:52:20;23.13;;;9.00;;
9138;SDS011;4604;48.616;9.548;2022-12-18T05:54:47;24.63;;;9.03;;
9138;SDS011;4604;48.616;9.548;2022-12-18T05:57:15;19.03;;;8.83;;
9138;SDS011;4604;48.616;9.548;2022-12-18T05:59:45;22.33;;;9.73;;
9138;SDS011;4604;48.616;9.548;2022-12-18T06:02:11;16.90;;;8.33;;
9138;SDS011;4604;48.616;9.548;2022-12-18T06:04:38;19.07;;;9.90;;
9138;SDS011;4604;48.616;9.548;2022-12-18T06:07:05;20.50;;;9.73;;
9138;SDS011;4604;48.616;9.548;2022-12-18T06:09:32;20.63;;;10.67;;
9138;SDS011;4604;48.616;9.548;2022-12-18T06:11:58;24.57;;;11.13;;
9138;SDS011;4604;48.616;9.548;2022-12-18T06:14:27;25.10;;;11.10;;
9138;SDS011;4604;48.616;9.548;2022-12-18T06:16:53;24.87;;;10.70;;
9138;SDS011;4604;48.616;9.548;2022-12-18T06:19:20;20.73;;;10.77;;
9138;SDS011;4604;48.616;9.548;2022-12-18T06:21:47;18.63;;;8.83;;
9138;SDS011;4604;48.616;9.548;2022-12-18T06:24:14;20.43;;;9.53;;
9138;SDS011;4604;48.616;9.548;2022-12-18T06:26:41;20.57;;;10.17;;
9138;SDS011;4604;48.616;9.548;2022-12-18T06:29:08;10.40;;;6.23;;
9138;SDS011;4604;48.616;9.548;2022-12-18T06:31:36;17.67;;;8.67;;
9138;SDS011;4604;48.616;9.548;2022-12-18T06:34:03;17.40;;;6.97;;
9138;SDS011;4604;48.616;9.548;2022-12-18T06:36:30;15.00;;;7.70;;
9138;SDS011;4604;48.616;9.548;2022-12-18T06:38:57;19.10;;;8.03;;
9138;SDS011;4604;48.616;9.548;2022-12-18T06:41:24;16.77;;;8.40;;
9138;SDS011;4604;48.616;9.548;2022-12-18T06:43:50;22.33;;;8.30;;
9138;SDS011;4604;48.616;9.548;2022-12-18T06:46:17;18.50;;;9.33;;
9138;SDS011;4604;48.616;9.548;2022-12-18T06:48:47;17.97;;;10.63;;
9138;SDS011;4604;48.616;9.548;2022-12-18T06:51:16;23.30;;;11.37;;
9138;SDS011;4604;48.616;9.548;2022-12-18T06:53:44;26.43;;;11.80;;
9138;SDS011;4604;48.616;9.548;2022-12-18T06:56:10;19.03;;;10.10;;
9138;SDS011;4604;48.616;9.548;2022-12-18T06:58:37;36.20;;;14.17;;
9138;SDS011;4604;48.616;9.548;2022-12-18T07:01:05;27.17;;;13.33;;
9138;SDS011;4604;48.616;9.548;2022-12-18T07:03:33;31.17;;;13.57;;
9138;SDS011;4604;48.616;9.548;2022-12-18T07:06:01;33.27;;;13.07;;
9138;SDS011;4604;48.616;9.548;2022-12-18T07:08:28;28.53;;;13.03;;
9138;SDS011;4604;48.616;9.548;2022-12-18T07:10:55;24.70;;;11.87;;
9138;SDS011;4604;48.616;9.548;2022-12-18T07:13:22;26.80;;;12.97;;
9138;SDS011;4604;48.616;9.548;2022-12-18T07:15:49;26.30;;;11.93;;
9138;SDS011;4604;48.616;9.548;2022-12-18T07:18:16;29.37;;;12.90;;
9138;SDS011;4604;48.616;9.548;2022-12-18T07:20:45;29.43;;;11.60;;
9138;SDS011;4604;48.616;9.548;2022-12-18T07:23:13;26.10;;;11.23;;
9138;SDS011;4604;48.616;9.548;2022-12-18T07:25:40;26.80;;;11.30;;
9138;SDS011;4604;48.616;9.548;2022-12-18T07:28:06;23.07;;;12.00;;
9138;SDS011;4604;48.616;9.548;2022-12-18T07:30:33;19.37;;;11.07;;
9138;SDS011;4604;48.616;9.548;2022-12-18T07:33:03;29.70;;;12.20;;
9138;SDS011;4604;48.616;9.548;2022-12-18T07:35:30;30.50;;;11.77;;
9138;SDS011;4604;48.616;9.548;2022-12-18T07:37:57;21.67;;;10.13;;
9138;SDS011;4604;48.616;9.548;2022-12-18T07:40:25;21.93;;;10.33;;
9138;SDS011;4604;48.616;9.548;2022-12-18T07:42:52;24.97;;;11.83;;
9138;SDS011;4604;48.616;9.548;2022-12-18T07:45:18;25.67;;;12.13;;
9138;SDS011;4604;48.616;9.548;2022-12-18T07:47:46;52.05;;;23.80;;
9138;SDS011;4604;48.616;9.548;2022-12-18T07:50:13;41.60;;;17.83;;
9138;SDS011;4604;48.616;9.548;2022-12-18T07:52:39;31.80;;;15.70;;
9138;SDS011;4604;48.616;9.548;2022-12-18T07:55:06;28.70;;;12.87;;
9138;SDS011;4604;48.616;9.548;2022-12-18T07:57:35;28.50;;;11.97;;
9138;SDS011;4604;48.616;9.548;2022-12-18T08:00:02;29.43;;;13.50;;
9138;SDS011;4604;48.616;9.548;2022-12-18T08:02:30;28.43;;;14.07;;
9138;SDS011;4604;48.616;9.548;2022-12-18T08:04:57;31.47;;;15.23;;
9138;SDS011;4604;48.616;9.548;2022-12-18T08:07:24;39.83;;;15.53;;
9138;SDS011;4604;48.616;9.548;2022-12-18T08:09:51;32.83;;;14.60;;
9138;SDS011;4604;48.616;9.548;2022-12-18T08:12:17;33.07;;;15.47;;
9138;SDS011;4604;48.616;9.548;2022-12-18T08:14:45;35.57;;;15.10;;
9138;SDS011;4604;48.616;9.548;2022-12-18T08:17:12;25.50;;;12.90;;
9138;SDS011;4604;48.616;9.548;2022-12-18T08:19:39;33.30;;;15.67;;
9138;SDS011;4604;48.616;9.548;2022-12-18T08:22:06;39.37;;;17.87;;
9138;SDS011;4604;48.616;9.548;2022-12-18T08:24:33;36.00;;;16.03;;
9138;SDS011;4604;48.616;9.548;2022-12-18T08:26:59;34.87;;;16.60;;
9138;SDS011;4604;48.616;9.548;2022-12-18T08:29:26;28.87;;;14.83;;
9138;SDS011;4604;48.616;9.548;2022-12-18T08:31:54;38.00;;;14.30;;
9138;SDS011;4604;48.616;9.548;2022-12-18T08:34:21;36.83;;;16.73;;
9138;SDS011;4604;48.616;9.548;2022-12-18T08:36:48;40.20;;;17.83;;
9138;SDS011;4604;48.616;9.548;2022-12-18T08:39:15;41.67;;;16.87;;
9138;SDS011;4604;48.616;9.548;2022-12-18T08:41:48;34.77;;;17.87;;
9138;SDS011;4604;48.616;9.548;2022-12-18T08:44:29;41.80;;;21.63;;
9138;SDS011;4604;48.616;9.548;2022-12-18T08:47:07;43.07;;;21.07;;
9138;SDS011;4604;48.616;9.548;2022-12-18T08:49:33;52.80;;;23.20;;
9138;SDS011;4604;48.616;9.548;2022-12-18T08:52:01;50.07;;;21.70;;
9138;SDS011;4604;48.616;9.548;2022-12-18T08:54:28;45.33;;;21.23;;
9138;SDS011;4604;48.616;9.548;2022-12-18T08:56:55;42.87;;;18.83;;
9138;SDS011;4604;48.616;9.548;2022-12-18T08:59:22;35.37;;;18.87;;
9138;SDS011;4604;48.616;9.548;2022-12-18T09:01:49;44.90;;;21.27;;
9138;SDS011;4604;48.616;9.548;2022-12-18T09:04:17;41.47;;;20.03;;
9138;SDS011;4604;48.616;9.548;2022-12-18T09:06:44;36.33;;;17.63;;
9138;SDS011;4604;48.616;9.548;2022-12-18T09:09:11;32.53;;;15.37;;
9138;SDS011;4604;48.616;9.548;2022-12-18T09:11:38;38.47;;;16.87;;
9138;SDS011;4604;48.616;9.548;2022-12-18T09:14:05;36.13;;;18.20;;
9138;SDS011;4604;48.616;9.548;2022-12-18T09:16:32;43.23;;;20.63;;
9138;SDS011;4604;48.616;9.548;2022-12-18T09:19:00;38.13;;;18.37;;
9138;SDS011;4604;48.616;9.548;2022-12-18T09:21:30;39.73;;;17.73;;
9138;SDS011;4604;48.616;9.548;2022-12-18T09:23:57;36.60;;;15.00;;
9138;SDS011;4604;48.616;9.548;2022-12-18T09:26:25;31.70;;;15.63;;
9138;SDS011;4604;48.616;9.548;2022-12-18T09:28:53;29.23;;;13.67;;
9138;SDS011;4604;48.616;9.548;2022-12-18T09:31:21;37.03;;;16.67;;
9138;SDS011;4604;48.616;9.548;2022-12-18T09:33:48;33.23;;;15.47;;
9138;SDS011;4604;48.616;9.548;2022-12-18T09:36:16;34.17;;;14.73;;
9138;SDS011;4604;48.616;9.548;2022-12-18T09:38:45;37.33;;;18.43;;
9138;SDS011;4604;48.616;9.548;2022-12-18T09:41:21;39.50;;;17.47;;
9138;SDS011;4604;48.616;9.548;2022-12-18T09:44:09;39.17;;;16.93;;
9138;SDS011;4604;48.616;9.548;2022-12-18T09:46:40;32.63;;;16.30;;
9138;SDS011;4604;48.616;9.548;2022-12-18T09:49:13;40.70;;;20.70;;
9138;SDS011;4604;48.616;9.548;2022-12-18T09:51:42;40.10;;;18.53;;
9138;SDS011;4604;48.616;9.548;2022-12-18T09:54:16;38.77;;;20.10;;
9138;SDS011;4604;48.616;9.548;2022-12-18T09:56:49;45.63;;;21.70;;
9138;SDS011;4604;48.616;9.548;2022-12-18T09:59:18;40.93;;;20.00;;
9138;SDS011;4604;48.616;9.548;2022-12-18T10:01:49;40.00;;;19.93;;
9138;SDS011;4604;48.616;9.548;2022-12-18T10:04:16;46.37;;;20.20;;
9138;SDS011;4604;48.616;9.548;2022-12-18T10:06:44;37.00;;;16.63;;
9138;SDS011;4604;48.616;9.548;2022-12-18T10:09:23;32.73;;;16.10;;
9138;SDS011;4604;48.616;9.548;2022-12-18T10:11:59;33.77;;;15.53;;
9138;SDS011;4604;48.616;9.548;2022-12-18T10:14:34;33.73;;;16.83;;
9138;SDS011;4604;48.616;9.548;2022-12-18T10:17:10;37.47;;;17.00;;
9138;SDS011;4604;48.616;9.548;2022-12-18T10:19:43;37.20;;;16.60;;
9138;SDS011;4604;48.616;9.548;2022-12-18T10:22:19;37.60;;;16.07;;
9138;SDS011;4604;48.616;9.548;2022-12-18T10:24:55;32.97;;;13.80;;
9138;SDS011;4604;48.616;9.548;2022-12-18T10:27:29;36.37;;;17.97;;
9138;SDS011;4604;48.616;9.548;2022-12-18T10:29:57;34.87;;;16.23;;
9138;SDS011;4604;48.616;9.548;2022-12-18T10:32:24;33.43;;;15.90;;
9138;SDS011;4604;48.616;9.548;2022-12-18T10:34:53;35.20;;;18.13;;
9138;SDS011;4604;48.616;9.548;2022-12-18T10:37:22;40.17;;;17.83;;
9138;SDS011;4604;48.616;9.548;2022-12-18T10:42:36;38.97;;;16.73;;
9138;SDS011;4604;48.616;9.548;2022-12-18T10:45:05;29.00;;;14.30;;
9138;SDS011;4604;48.616;9.548;2022-12-18T10:47:35;32.87;;;15.50;;
9138;SDS011;4604;48.616;9.548;2022-12-18T10:50:03;34.37;;;15.57;;
9138;SDS011;4604;48.616;9.548;2022-12-18T10:52:30;32.93;;;17.07;;
9138;SDS011;4604;48.616;9.548;2022-12-18T10:54:58;31.03;;;15.80;;
9138;SDS011;4604;48.616;9.548;2022-12-18T10:57:31;38.80;;;18.70;;
9138;SDS011;4604;48.616;9.548;2022-12-18T11:02:52;38.63;;;18.87;;
9138;SDS011;4604;48.616;9.548;2022-12-18T11:05:25;35.30;;;18.40;;
9138;SDS011;4604;48.616;9.548;2022-12-18T11:07:53;38.00;;;17.60;;
9138;SDS011;4604;48.616;9.548;2022-12-18T11:10:21;36.97;;;16.83;;
9138;SDS011;4604;48.616;9.548;2022-12-18T11:12:51;34.50;;;16.37;;
9138;SDS011;4604;48.616;9.548;2022-12-18T11:15:19;33.27;;;14.90;;
9138;SDS011;4604;48.616;9.548;2022-12-18T11:17:47;39.07;;;17.37;;
9138;SDS011;4604;48.616;9.548;2022-12-18T11:20:30;34.13;;;14.57;;
9138;SDS011;4604;48.616;9.548;2022-12-18T11:23:00;29.90;;;15.33;;
9138;SDS011;4604;48.616;9.548;2022-12-18T11:25:30;39.73;;;17.90;;
9138;SDS011;4604;48.616;9.548;2022-12-18T11:28:00;33.80;;;17.70;;
9138;SDS011;4604;48.616;9.548;2022-12-18T11:30:29;34.83;;;17.10;;
9138;SDS011;4604;48.616;9.548;2022-12-18T11:33:03;34.13;;;15.63;;
9138;SDS011;4604;48.616;9.548;2022-12-18T11:35:35;34.87;;;16.17;;
9138;SDS011;4604;48.616;9.548;2022-12-18T11:38:10;33.67;;;14.20;;
9138;SDS011;4604;48.616;9.548;2022-12-18T11:40:45;36.63;;;15.60;;
9138;SDS011;4604;48.616;9.548;2022-12-18T11:43:25;28.73;;;14.47;;
9138;SDS011;4604;48.616;9.548;2022-12-18T11:45:55;32.40;;;15.57;;
9138;SDS011;4604;48.616;9.548;2022-12-18T11:48:26;29.20;;;14.93;;
9138;SDS011;4604;48.616;9.548;2022-12-18T11:50:57;28.47;;;14.70;;
9138;SDS011;4604;48.616;9.548;2022-12-18T11:53:27;36.07;;;15.80;;
9138;SDS011;4604;48.616;9.548;2022-12-18T11:56:00;32.23;;;16.50;;
9138;SDS011;4604;48.616;9.548;2022-12-18T12:01:28;39.57;;;17.20;;
9138;SDS011;4604;48.616;9.548;2022-12-18T12:04:11;34.40;;;16.20;;
9138;SDS011;4604;48.616;9.548;2022-12-18T12:06:57;33.67;;;16.13;;
9138;SDS011;4604;48.616;9.548;2022-12-18T12:09:36;31.50;;;15.73;;
9138;SDS011;4604;48.616;9.548;2022-12-18T12:12:16;34.60;;;15.83;;
9138;SDS011;4604;48.616;9.548;2022-12-18T12:14:57;30.40;;;15.60;;
9138;SDS011;4604;48.616;9.548;2022-12-18T12:17:40;30.53;;;14.40;;
9138;SDS011;4604;48.616;9.548;2022-12-18T12:20:14;29.20;;;14.33;;
9138;SDS011;4604;48.616;9.548;2022-12-18T12:22:48;34.97;;;15.17;;
9138;SDS011;4604;48.616;9.548;2022-12-18T12:25:25;34.80;;;15.37;;
9138;SDS011;4604;48.616;9.548;2022-12-18T12:28:03;33.33;;;16.87;;
9138;SDS011;4604;48.616;9.548;2022-12-18T12:30:42;35.47;;;17.67;;
9138;SDS011;4604;48.616;9.548;2022-12-18T12:33:22;36.80;;;15.47;;
9138;SDS011;4604;48.616;9.548;2022-12-18T12:36:04;32.03;;;16.60;;
9138;SDS011;4604;48.616;9.548;2022-12-18T12:38:40;33.50;;;15.70;;
9138;SDS011;4604;48.616;9.548;2022-12-18T12:41:12;39.63;;;16.73;;
9138;SDS011;4604;48.616;9.548;2022-12-18T12:43:57;36.80;;;16.93;;
9138;SDS011;4604;48.616;9.548;2022-12-18T12:46:29;35.27;;;16.57;;
9138;SDS011;4604;48.616;9.548;2022-12-18T12:49:01;32.30;;;15.80;;
9138;SDS011;4604;48.616;9.548;2022-12-18T12:51:32;36.60;;;16.60;;
9138;SDS011;4604;48.616;9.548;2022-12-18T12:54:01;41.77;;;18.40;;
9138;SDS011;4604;48.616;9.548;2022-12-18T12:56:42;41.40;;;17.33;;
9138;SDS011;4604;48.616;9.548;2022-12-18T12:59:19;35.77;;;17.23;;
9138;SDS011;4604;48.616;9.548;2022-12-18T13:01:57;37.60;;;17.03;;
9138;SDS011;4604;48.616;9.548;2022-12-18T13:04:30;37.20;;;17.10;;
9138;SDS011;4604;48.616;9.548;2022-12-18T13:07:04;36.00;;;16.87;;
9138;SDS011;4604;48.616;9.548;2022-12-18T13:10:10;35.00;;;16.43;;
9138;SDS011;4604;48.616;9.548;2022-12-18T13:12:50;36.33;;;17.60;;
9138;SDS011;4604;48.616;9.548;2022-12-18T13:15:24;42.07;;;18.33;;
9138;SDS011;4604;48.616;9.548;2022-12-18T13:18:05;36.30;;;18.77;;
9138;SDS011;4604;48.616;9.548;2022-12-18T13:20:41;36.40;;;17.10;;
9138;SDS011;4604;48.616;9.548;2022-12-18T13:29:01;39.90;;;16.97;;
9138;SDS011;4604;48.616;9.548;2022-12-18T13:34:32;35.00;;;16.90;;
9138;SDS011;4604;48.616;9.548;2022-12-18T13:43:04;36.17;;;17.30;;
9138;SDS011;4604;48.616;9.548;2022-12-18T13:45:49;37.00;;;17.87;;
9138;SDS011;4604;48.616;9.548;2022-12-18T13:48:25;34.67;;;16.80;;
9138;SDS011;4604;48.616;9.548;2022-12-18T13:50:57;43.90;;;18.30;;
9138;SDS011;4604;48.616;9.548;2022-12-18T13:53:28;43.33;;;18.20;;
9138;SDS011;4604;48.616;9.548;2022-12-18T13:55:59;35.33;;;16.33;;
9138;SDS011;4604;48.616;9.548;2022-12-18T13:58:28;35.43;;;16.33;;
9138;SDS011;4604;48.616;9.548;2022-12-18T14:00:54;37.47;;;16.80;;
9138;SDS011;4604;48.616;9.548;2022-12-18T14:03:22;35.80;;;16.37;;
9138;SDS011;4604;48.616;9.548;2022-12-18T14:05:53;37.83;;;18.57;;
9138;SDS011;4604;48.616;9.548;2022-12-18T14:08:26;37.77;;;17.77;;
9138;SDS011;4604;48.616;9.548;2022-12-18T14:10:58;38.90;;;17.13;;
9138;SDS011;4604;48.616;9.548;2022-12-18T14:13:29;39.20;;;17.17;;
9138;SDS011;4604;48.616;9.548;2022-12-18T14:16:00;38.87;;;17.63;;
9138;SDS011;4604;48.616;9.548;2022-12-18T14:18:31;41.40;;;18.97;;
9138;SDS011;4604;48.616;9.548;2022-12-18T14:21:04;35.93;;;17.53;;
9138;SDS011;4604;48.616;9.548;2022-12-18T14:23:35;48.47;;;21.97;;
9138;SDS011;4604;48.616;9.548;2022-12-18T14:26:17;48.73;;;20.40;;
9138;SDS011;4604;48.616;9.548;2022-12-18T14:28:48;41.43;;;20.37;;
9138;SDS011;4604;48.616;9.548;2022-12-18T14:31:19;46.97;;;21.50;;
9138;SDS011;4604;48.616;9.548;2022-12-18T14:33:46;44.57;;;20.60;;
9138;SDS011;4604;48.616;9.548;2022-12-18T14:36:15;43.63;;;20.17;;
9138;SDS011;4604;48.616;9.548;2022-12-18T14:38:48;41.40;;;19.13;;
9138;SDS011;4604;48.616;9.548;2022-12-18T14:41:17;37.63;;;19.57;;
9138;SDS011;4604;48.616;9.548;2022-12-18T14:43:46;45.80;;;20.80;;
9138;SDS011;4604;48.616;9.548;2022-12-18T14:46:26;49.10;;;20.90;;
9138;SDS011;4604;48.616;9.548;2022-12-18T14:48:55;46.83;;;20.30;;
9138;SDS011;4604;48.616;9.548;2022-12-18T14:51:23;47.00;;;20.80;;
9138;SDS011;4604;48.616;9.548;2022-12-18T14:53:53;48.03;;;20.30;;
9138;SDS011;4604;48.616;9.548;2022-12-18T14:56:22;55.17;;;21.70;;
9138;SDS011;4604;48.616;9.548;2022-12-18T14:58:53;43.17;;;20.53;;
9138;SDS011;4604;48.616;9.548;2022-12-18T15:01:22;39.57;;;19.27;;
9138;SDS011;4604;48.616;9.548;2022-12-18T15:03:52;46.27;;;20.40;;
9138;SDS011;4604;48.616;9.548;2022-12-18T15:06:27;42.03;;;20.23;;
9138;SDS011;4604;48.616;9.548;2022-12-18T15:08:56;50.63;;;20.93;;
9138;SDS011;4604;48.616;9.548;2022-12-18T15:11:28;35.87;;;17.17;;
9138;SDS011;4604;48.616;9.548;2022-12-18T15:14:03;40.57;;;18.27;;
9138;SDS011;4604;48.616;9.548;2022-12-18T15:16:50;46.57;;;20.30;;
9138;SDS011;4604;48.616;9.548;2022-12-18T15:19:20;39.27;;;21.00;;
9138;SDS011;4604;48.616;9.548;2022-12-18T15:21:48;37.27;;;19.60;;
9138;SDS011;4604;48.616;9.548;2022-12-18T15:24:16;49.63;;;21.97;;
9138;SDS011;4604;48.616;9.548;2022-12-18T15:26:45;46.77;;;21.27;;
9138;SDS011;4604;48.616;9.548;2022-12-18T15:29:17;47.50;;;20.33;;
9138;SDS011;4604;48.616;9.548;2022-12-18T15:31:57;36.83;;;18.93;;
9138;SDS011;4604;48.616;9.548;2022-12-18T15:34:25;43.00;;;19.87;;
9138;SDS011;4604;48.616;9.548;2022-12-18T15:36:53;42.97;;;20.03;;